sensor_id;sensor_type;location;lat;lon;timestamp;temperature;humidity
19888;DHT22;10106;51.332;12.336;2022-07-30T00:02:22;18.90;99.90
19888;DHT22;10106;51.332;12.336;2022-07-30T00:04:48;18.90;99.90
19888;DHT22;10106;51.332;12.336;2022-07-30T00:07:14;18.90;99.90
19888;DHT22;10106;51.332;12.336;2022-07-30T00:09:40;18.80;99.90
19888;DHT22;10106;51.332;12.336;2022-07-30T00:12:06;18.80;99.90
19888;DHT22;10106;51.332;12.336;2022-07-30T00:14:33;18.90;99.90
19888;DHT22;10106;51.332;12.336;2022-07-30T00:17:00;18.80;99.90
19888;DHT22;10106;51.332;12.336;2022-07-30T00:19:26;18.80;99.90
19888;DHT22;10106;51.332;12.336;2022-07-30T00:21:51;18.70;99.90
19888;DHT22;10106;51.332;12.336;2022-07-30T00:24:20;18.70;99.90
19888;DHT22;10106;51.332;12.336;2022-07-30T00:26:46;18.70;99.90
19888;DHT22;10106;51.332;12.336;2022-07-30T00:29:11;18.70;99.90
19888;DHT22;10106;51.332;12.336;2022-07-30T00:31:38;18.70;99.90
19888;DHT22;10106;51.332;12.336;2022-07-30T00:34:04;18.60;99.90
19888;DHT22;10106;51.332;12.336;2022-07-30T00:36:29;18.60;99.90
19888;DHT22;10106;51.332;12.336;2022-07-30T00:38:55;18.60;99.90
19888;DHT22;10106;51.332;12.336;2022-07-30T00:41:21;18.60;99.90
19888;DHT22;10106;51.332;12.336;2022-07-30T00:43:47;18.60;99.90
19888;DHT22;10106;51.332;12.336;2022-07-30T00:46:12;18.70;99.90
19888;DHT22;10106;51.332;12.336;2022-07-30T00:48:39;18.70;99.90
19888;DHT22;10106;51.332;12.336;2022-07-30T00:51:05;18.60;99.90
19888;DHT22;10106;51.332;12.336;2022-07-30T00:53:31;18.60;99.90
19888;DHT22;10106;51.332;12.336;2022-07-30T00:55:57;18.60;99.90
19888;DHT22;10106;51.332;12.336;2022-07-30T00:58:23;18.60;99.90
19888;DHT22;10106;51.332;12.336;2022-07-30T01:00:48;18.50;99.90
19888;DHT22;10106;51.332;12.336;2022-07-30T01:03:14;18.40;99.90
19888;DHT22;10106;51.332;12.336;2022-07-30T01:05:40;18.40;99.90
19888;DHT22;10106;51.332;12.336;2022-07-30T01:08:06;18.30;99.90
19888;DHT22;10106;51.332;12.336;2022-07-30T01:10:31;18.20;99.90
19888;DHT22;10106;51.332;12.336;2022-07-30T01:12:57;18.20;99.90
19888;DHT22;10106;51.332;12.336;2022-07-30T01:15:24;18.20;99.90
19888;DHT22;10106;51.332;12.336;2022-07-30T01:17:50;18.10;99.90
19888;DHT22;10106;51.332;12.336;2022-07-30T01:20:25;18.10;99.90
19888;DHT22;10106;51.332;12.336;2022-07-30T01:23:07;18.10;99.90
19888;DHT22;10106;51.332;12.336;2022-07-30T01:26:13;18.00;99.90
19888;DHT22;10106;51.332;12.336;2022-07-30T01:28:34;18.00;99.90
19888;DHT22;10106;51.332;12.336;2022-07-30T01:31:02;17.90;99.90
19888;DHT22;10106;51.332;12.336;2022-07-30T01:33:29;17.90;99.90
19888;DHT22;10106;51.332;12.336;2022-07-30T01:35:56;17.80;99.90
19888;DHT22;10106;51.332;12.336;2022-07-30T01:38:24;17.80;99.90
19888;DHT22;10106;51.332;12.336;2022-07-30T01:40:52;17.70;99.90
19888;DHT22;10106;51.332;12.336;2022-07-30T01:43:20;17.70;99.90
19888;DHT22;10106;51.332;12.336;2022-07-30T01:45:49;17.70;99.90
19888;DHT22;10106;51.332;12.336;2022-07-30T01:48:17;17.60;99.90
19888;DHT22;10106;51.332;12.336;2022-07-30T01:50:45;17.60;99.90
19888;DHT22;10106;51.332;12.336;2022-07-30T01:53:18;17.50;99.90
19888;DHT22;10106;51.332;12.336;2022-07-30T01:55:45;17.50;99.90
19888;DHT22;10106;51.332;12.336;2022-07-30T01:58:13;17.50;99.90
19888;DHT22;10106;51.332;12.336;2022-07-30T02:00:42;17.40;99.90
19888;DHT22;10106;51.332;12.336;2022-07-30T02:03:09;17.40;99.90
19888;DHT22;10106;51.332;12.336;2022-07-30T02:05:36;17.40;99.90
19888;DHT22;10106;51.332;12.336;2022-07-30T02:08:09;17.40;99.90
19888;DHT22;10106;51.332;12.336;2022-07-30T02:10:45;17.40;99.90
19888;DHT22;10106;51.332;12.336;2022-07-30T02:13:19;17.40;99.90
19888;DHT22;10106;51.332;12.336;2022-07-30T02:15:53;17.40;99.90
19888;DHT22;10106;51.332;12.336;2022-07-30T02:18:35;17.40;99.90
19888;DHT22;10106;51.332;12.336;2022-07-30T02:21:05;17.30;99.90
19888;DHT22;10106;51.332;12.336;2022-07-30T02:23:38;17.30;99.90
19888;DHT22;10106;51.332;12.336;2022-07-30T02:26:06;17.20;99.90
19888;DHT22;10106;51.332;12.336;2022-07-30T02:28:39;17.20;99.90
19888;DHT22;10106;51.332;12.336;2022-07-30T02:31:17;17.20;99.90
19888;DHT22;10106;51.332;12.336;2022-07-30T02:33:44;17.20;99.90
19888;DHT22;10106;51.332;12.336;2022-07-30T02:36:14;17.30;99.90
19888;DHT22;10106;51.332;12.336;2022-07-30T02:38:42;17.20;99.90
19888;DHT22;10106;51.332;12.336;2022-07-30T02:41:09;17.10;99.90
19888;DHT22;10106;51.332;12.336;2022-07-30T02:43:37;17.10;99.90
19888;DHT22;10106;51.332;12.336;2022-07-30T02:46:05;17.00;99.90
19888;DHT22;10106;51.332;12.336;2022-07-30T02:48:32;17.10;99.90
19888;DHT22;10106;51.332;12.336;2022-07-30T02:50:59;17.10;99.90
19888;DHT22;10106;51.332;12.336;2022-07-30T02:53:26;17.00;99.90
19888;DHT22;10106;51.332;12.336;2022-07-30T02:55:53;17.00;99.90
19888;DHT22;10106;51.332;12.336;2022-07-30T02:58:23;17.10;99.90
19888;DHT22;10106;51.332;12.336;2022-07-30T03:00:51;17.10;99.90
19888;DHT22;10106;51.332;12.336;2022-07-30T03:03:18;17.10;99.90
19888;DHT22;10106;51.332;12.336;2022-07-30T03:05:45;17.00;99.90
19888;DHT22;10106;51.332;12.336;2022-07-30T03:08:14;17.10;99.90
19888;DHT22;10106;51.332;12.336;2022-07-30T03:10:42;17.00;99.90
19888;DHT22;10106;51.332;12.336;2022-07-30T03:13:09;17.10;99.90
19888;DHT22;10106;51.332;12.336;2022-07-30T03:15:37;17.10;99.90
19888;DHT22;10106;51.332;12.336;2022-07-30T03:18:05;17.20;99.90
19888;DHT22;10106;51.332;12.336;2022-07-30T03:20:34;17.20;99.90
19888;DHT22;10106;51.332;12.336;2022-07-30T03:23:03;17.20;99.90
19888;DHT22;10106;51.332;12.336;2022-07-30T03:25:30;17.20;99.90
19888;DHT22;10106;51.332;12.336;2022-07-30T03:27:59;17.20;99.90
19888;DHT22;10106;51.332;12.336;2022-07-30T03:30:25;17.20;99.90
19888;DHT22;10106;51.332;12.336;2022-07-30T03:32:53;17.30;99.90
19888;DHT22;10106;51.332;12.336;2022-07-30T03:35:21;17.30;99.90
19888;DHT22;10106;51.332;12.336;2022-07-30T03:37:47;17.30;99.90
19888;DHT22;10106;51.332;12.336;2022-07-30T03:40:13;17.30;99.90
19888;DHT22;10106;51.332;12.336;2022-07-30T03:42:40;17.20;99.90
19888;DHT22;10106;51.332;12.336;2022-07-30T03:45:07;17.20;99.90
19888;DHT22;10106;51.332;12.336;2022-07-30T03:47:36;17.20;99.90
19888;DHT22;10106;51.332;12.336;2022-07-30T03:50:03;17.20;99.90
19888;DHT22;10106;51.332;12.336;2022-07-30T03:52:32;17.20;99.90
19888;DHT22;10106;51.332;12.336;2022-07-30T03:54:59;17.30;99.90
19888;DHT22;10106;51.332;12.336;2022-07-30T03:57:25;17.30;99.90
19888;DHT22;10106;51.332;12.336;2022-07-30T03:59:51;17.30;99.90
19888;DHT22;10106;51.332;12.336;2022-07-30T04:02:16;17.30;99.90
19888;DHT22;10106;51.332;12.336;2022-07-30T04:04:42;17.40;99.90
19888;DHT22;10106;51.332;12.336;2022-07-30T04:07:08;17.40;99.90
19888;DHT22;10106;51.332;12.336;2022-07-30T04:09:34;17.50;99.90
19888;DHT22;10106;51.332;12.336;2022-07-30T04:11:59;17.50;99.90
19888;DHT22;10106;51.332;12.336;2022-07-30T04:14:25;17.60;99.90
19888;DHT22;10106;51.332;12.336;2022-07-30T04:17:52;17.60;99.90
19888;DHT22;10106;51.332;12.336;2022-07-30T04:19:59;17.60;99.90
19888;DHT22;10106;51.332;12.336;2022-07-30T04:22:33;17.60;99.90
19888;DHT22;10106;51.332;12.336;2022-07-30T04:25:01;17.50;99.90
19888;DHT22;10106;51.332;12.336;2022-07-30T04:27:28;17.50;99.90
19888;DHT22;10106;51.332;12.336;2022-07-30T04:29:55;17.50;99.90
19888;DHT22;10106;51.332;12.336;2022-07-30T04:32:21;17.60;99.90
19888;DHT22;10106;51.332;12.336;2022-07-30T04:34:48;17.60;99.90
19888;DHT22;10106;51.332;12.336;2022-07-30T04:37:19;17.60;99.90
19888;DHT22;10106;51.332;12.336;2022-07-30T04:39:45;17.60;99.90
19888;DHT22;10106;51.332;12.336;2022-07-30T04:42:11;17.60;99.90
19888;DHT22;10106;51.332;12.336;2022-07-30T04:44:37;17.60;99.90
19888;DHT22;10106;51.332;12.336;2022-07-30T04:47:03;17.50;99.90
19888;DHT22;10106;51.332;12.336;2022-07-30T04:49:29;17.50;99.90
19888;DHT22;10106;51.332;12.336;2022-07-30T04:51:55;17.50;99.90
19888;DHT22;10106;51.332;12.336;2022-07-30T04:54:23;17.60;99.90
19888;DHT22;10106;51.332;12.336;2022-07-30T04:56:49;17.60;99.90
19888;DHT22;10106;51.332;12.336;2022-07-30T04:59:17;17.60;99.90
19888;DHT22;10106;51.332;12.336;2022-07-30T05:06:56;17.60;99.90
19888;DHT22;10106;51.332;12.336;2022-07-30T05:09:21;17.60;99.90
19888;DHT22;10106;51.332;12.336;2022-07-30T05:11:52;17.50;99.90
19888;DHT22;10106;51.332;12.336;2022-07-30T05:14:18;17.50;99.90
19888;DHT22;10106;51.332;12.336;2022-07-30T05:16:44;17.50;99.90
19888;DHT22;10106;51.332;12.336;2022-07-30T05:19:10;17.50;99.90
19888;DHT22;10106;51.332;12.336;2022-07-30T05:21:35;17.50;99.90
19888;DHT22;10106;51.332;12.336;2022-07-30T05:24:01;17.50;99.90
19888;DHT22;10106;51.332;12.336;2022-07-30T05:26:28;17.50;99.90
19888;DHT22;10106;51.332;12.336;2022-07-30T05:28:53;17.50;99.90
19888;DHT22;10106;51.332;12.336;2022-07-30T05:31:19;17.50;99.90
19888;DHT22;10106;51.332;12.336;2022-07-30T05:33:45;17.60;99.90
19888;DHT22;10106;51.332;12.336;2022-07-30T05:36:10;17.60;99.90
19888;DHT22;10106;51.332;12.336;2022-07-30T05:38:36;17.60;99.90
19888;DHT22;10106;51.332;12.336;2022-07-30T05:41:02;17.50;99.90
19888;DHT22;10106;51.332;12.336;2022-07-30T05:43:27;17.60;99.90
19888;DHT22;10106;51.332;12.336;2022-07-30T05:45:53;17.60;99.90
19888;DHT22;10106;51.332;12.336;2022-07-30T05:48:18;17.60;99.90
19888;DHT22;10106;51.332;12.336;2022-07-30T05:50:44;17.70;99.90
19888;DHT22;10106;51.332;12.336;2022-07-30T05:53:10;17.70;99.90
19888;DHT22;10106;51.332;12.336;2022-07-30T05:55:35;17.70;99.90
19888;DHT22;10106;51.332;12.336;2022-07-30T05:58:01;17.70;99.90
19888;DHT22;10106;51.332;12.336;2022-07-30T06:00:27;17.80;99.90
19888;DHT22;10106;51.332;12.336;2022-07-30T06:02:52;17.80;99.90
19888;DHT22;10106;51.332;12.336;2022-07-30T06:05:18;17.90;99.90
19888;DHT22;10106;51.332;12.336;2022-07-30T06:07:44;17.90;99.90
19888;DHT22;10106;51.332;12.336;2022-07-30T06:10:10;18.00;99.90
19888;DHT22;10106;51.332;12.336;2022-07-30T06:12:35;18.00;99.90
19888;DHT22;10106;51.332;12.336;2022-07-30T06:15:01;18.10;99.90
19888;DHT22;10106;51.332;12.336;2022-07-30T06:17:27;18.10;99.90
19888;DHT22;10106;51.332;12.336;2022-07-30T06:19:53;18.10;99.90
19888;DHT22;10106;51.332;12.336;2022-07-30T06:22:18;18.10;99.90
19888;DHT22;10106;51.332;12.336;2022-07-30T06:24:44;18.10;99.90
19888;DHT22;10106;51.332;12.336;2022-07-30T06:27:10;18.20;99.90
19888;DHT22;10106;51.332;12.336;2022-07-30T06:29:36;18.20;99.90
19888;DHT22;10106;51.332;12.336;2022-07-30T06:32:02;18.30;99.90
19888;DHT22;10106;51.332;12.336;2022-07-30T06:34:28;18.30;99.90
19888;DHT22;10106;51.332;12.336;2022-07-30T06:36:53;18.40;99.90
19888;DHT22;10106;51.332;12.336;2022-07-30T06:39:19;18.50;99.90
19888;DHT22;10106;51.332;12.336;2022-07-30T06:41:44;18.40;99.90
19888;DHT22;10106;51.332;12.336;2022-07-30T06:44:10;18.40;99.90
19888;DHT22;10106;51.332;12.336;2022-07-30T06:46:36;18.40;99.90
19888;DHT22;10106;51.332;12.336;2022-07-30T06:49:02;18.30;99.90
19888;DHT22;10106;51.332;12.336;2022-07-30T06:51:27;18.40;99.90
19888;DHT22;10106;51.332;12.336;2022-07-30T06:53:53;18.30;99.90
19888;DHT22;10106;51.332;12.336;2022-07-30T06:56:19;18.30;99.90
19888;DHT22;10106;51.332;12.336;2022-07-30T06:58:44;18.30;99.90
19888;DHT22;10106;51.332;12.336;2022-07-30T07:01:10;18.30;99.90
19888;DHT22;10106;51.332;12.336;2022-07-30T07:03:35;18.30;99.90
19888;DHT22;10106;51.332;12.336;2022-07-30T07:06:01;18.30;99.90
19888;DHT22;10106;51.332;12.336;2022-07-30T07:08:28;18.30;99.90
19888;DHT22;10106;51.332;12.336;2022-07-30T07:10:54;18.40;99.90
19888;DHT22;10106;51.332;12.336;2022-07-30T07:13:19;18.40;99.90
19888;DHT22;10106;51.332;12.336;2022-07-30T07:15:45;18.40;99.90
19888;DHT22;10106;51.332;12.336;2022-07-30T07:18:11;18.40;99.90
19888;DHT22;10106;51.332;12.336;2022-07-30T07:20:37;18.40;99.90
19888;DHT22;10106;51.332;12.336;2022-07-30T07:23:04;18.40;99.90
19888;DHT22;10106;51.332;12.336;2022-07-30T07:25:29;18.40;99.90
19888;DHT22;10106;51.332;12.336;2022-07-30T07:27:55;18.50;99.90
19888;DHT22;10106;51.332;12.336;2022-07-30T07:30:20;18.50;99.90
19888;DHT22;10106;51.332;12.336;2022-07-30T07:32:46;18.50;99.90
19888;DHT22;10106;51.332;12.336;2022-07-30T07:35:12;18.40;99.90
19888;DHT22;10106;51.332;12.336;2022-07-30T07:37:38;18.40;99.90
19888;DHT22;10106;51.332;12.336;2022-07-30T07:40:04;18.40;99.90
19888;DHT22;10106;51.332;12.336;2022-07-30T07:42:30;18.30;99.90
19888;DHT22;10106;51.332;12.336;2022-07-30T07:44:55;18.30;99.90
19888;DHT22;10106;51.332;12.336;2022-07-30T07:47:21;18.20;99.90
19888;DHT22;10106;51.332;12.336;2022-07-30T07:49:47;18.20;99.90
19888;DHT22;10106;51.332;12.336;2022-07-30T07:52:12;18.20;99.90
19888;DHT22;10106;51.332;12.336;2022-07-30T07:54:38;18.20;99.90
19888;DHT22;10106;51.332;12.336;2022-07-30T07:57:03;18.20;99.90
19888;DHT22;10106;51.332;12.336;2022-07-30T07:59:32;18.30;99.90
19888;DHT22;10106;51.332;12.336;2022-07-30T08:01:59;18.30;99.90
19888;DHT22;10106;51.332;12.336;2022-07-30T08:04:24;18.30;99.90
19888;DHT22;10106;51.332;12.336;2022-07-30T08:06:50;18.30;99.90
19888;DHT22;10106;51.332;12.336;2022-07-30T08:09:16;18.20;99.90
19888;DHT22;10106;51.332;12.336;2022-07-30T08:11:41;18.20;99.90
19888;DHT22;10106;51.332;12.336;2022-07-30T08:14:07;18.20;99.90
19888;DHT22;10106;51.332;12.336;2022-07-30T08:16:32;18.20;99.90
19888;DHT22;10106;51.332;12.336;2022-07-30T08:18:58;18.10;99.90
19888;DHT22;10106;51.332;12.336;2022-07-30T08:21:24;18.10;99.90
19888;DHT22;10106;51.332;12.336;2022-07-30T08:23:49;18.00;99.90
19888;DHT22;10106;51.332;12.336;2022-07-30T08:26:15;18.00;99.90
19888;DHT22;10106;51.332;12.336;2022-07-30T08:28:40;18.00;99.90
19888;DHT22;10106;51.332;12.336;2022-07-30T08:31:08;18.10;99.90
19888;DHT22;10106;51.332;12.336;2022-07-30T08:33:34;18.10;99.90
19888;DHT22;10106;51.332;12.336;2022-07-30T08:36:00;18.10;99.90
19888;DHT22;10106;51.332;12.336;2022-07-30T08:38:26;18.20;99.90
19888;DHT22;10106;51.332;12.336;2022-07-30T08:40:54;18.20;99.90
19888;DHT22;10106;51.332;12.336;2022-07-30T08:43:20;18.20;99.90
19888;DHT22;10106;51.332;12.336;2022-07-30T08:45:46;18.20;99.90
19888;DHT22;10106;51.332;12.336;2022-07-30T08:48:13;18.10;99.90
19888;DHT22;10106;51.332;12.336;2022-07-30T08:50:43;18.10;99.90
19888;DHT22;10106;51.332;12.336;2022-07-30T08:53:09;18.20;99.90
19888;DHT22;10106;51.332;12.336;2022-07-30T08:55:35;18.20;99.90
19888;DHT22;10106;51.332;12.336;2022-07-30T08:58:00;18.20;99.90
19888;DHT22;10106;51.332;12.336;2022-07-30T09:00:27;18.20;99.90
19888;DHT22;10106;51.332;12.336;2022-07-30T09:02:53;18.20;99.90
19888;DHT22;10106;51.332;12.336;2022-07-30T09:05:18;18.20;99.90
19888;DHT22;10106;51.332;12.336;2022-07-30T09:07:44;18.30;99.90
19888;DHT22;10106;51.332;12.336;2022-07-30T09:10:10;18.20;99.90
19888;DHT22;10106;51.332;12.336;2022-07-30T09:12:43;18.20;99.90
19888;DHT22;10106;51.332;12.336;2022-07-30T09:15:15;18.30;99.90
19888;DHT22;10106;51.332;12.336;2022-07-30T09:17:59;18.30;99.90
19888;DHT22;10106;51.332;12.336;2022-07-30T09:20:27;18.40;99.90
19888;DHT22;10106;51.332;12.336;2022-07-30T09:22:58;18.50;99.90
19888;DHT22;10106;51.332;12.336;2022-07-30T09:25:42;18.50;99.90
19888;DHT22;10106;51.332;12.336;2022-07-30T09:28:09;18.40;99.90
19888;DHT22;10106;51.332;12.336;2022-07-30T09:30:49;18.50;99.90
19888;DHT22;10106;51.332;12.336;2022-07-30T09:33:29;18.50;99.90
19888;DHT22;10106;51.332;12.336;2022-07-30T09:35:55;18.60;99.90
19888;DHT22;10106;51.332;12.336;2022-07-30T09:38:21;18.60;99.90
19888;DHT22;10106;51.332;12.336;2022-07-30T09:40:52;18.60;99.90
19888;DHT22;10106;51.332;12.336;2022-07-30T09:43:22;18.60;99.90
19888;DHT22;10106;51.332;12.336;2022-07-30T09:45:58;18.50;99.90
19888;DHT22;10106;51.332;12.336;2022-07-30T09:48:28;18.50;99.90
19888;DHT22;10106;51.332;12.336;2022-07-30T09:50:55;18.60;99.90
19888;DHT22;10106;51.332;12.336;2022-07-30T09:53:21;18.80;99.90
19888;DHT22;10106;51.332;12.336;2022-07-30T09:55:47;18.80;99.90
19888;DHT22;10106;51.332;12.336;2022-07-30T09:58:13;19.00;99.90
19888;DHT22;10106;51.332;12.336;2022-07-30T10:00:42;19.10;99.90
19888;DHT22;10106;51.332;12.336;2022-07-30T10:05:56;19.30;99.90
19888;DHT22;10106;51.332;12.336;2022-07-30T10:08:54;19.30;99.90
19888;DHT22;10106;51.332;12.336;2022-07-30T10:11:21;19.10;99.90
19888;DHT22;10106;51.332;12.336;2022-07-30T10:13:49;19.20;99.90
19888;DHT22;10106;51.332;12.336;2022-07-30T10:16:18;19.10;99.90
19888;DHT22;10106;51.332;12.336;2022-07-30T10:18:47;19.10;99.90
19888;DHT22;10106;51.332;12.336;2022-07-30T10:21:14;19.10;99.90
19888;DHT22;10106;51.332;12.336;2022-07-30T10:23:40;19.10;99.90
19888;DHT22;10106;51.332;12.336;2022-07-30T10:26:09;19.10;99.90
19888;DHT22;10106;51.332;12.336;2022-07-30T10:28:35;19.10;99.90
19888;DHT22;10106;51.332;12.336;2022-07-30T10:31:01;19.10;99.90
19888;DHT22;10106;51.332;12.336;2022-07-30T10:33:28;19.00;99.90
19888;DHT22;10106;51.332;12.336;2022-07-30T10:35:55;19.00;99.90
19888;DHT22;10106;51.332;12.336;2022-07-30T10:38:32;19.00;99.90
19888;DHT22;10106;51.332;12.336;2022-07-30T10:41:28;19.00;99.90
19888;DHT22;10106;51.332;12.336;2022-07-30T10:47:22;18.90;99.90
19888;DHT22;10106;51.332;12.336;2022-07-30T10:52:47;18.90;99.90
19888;DHT22;10106;51.332;12.336;2022-07-30T10:55:16;18.90;99.90
19888;DHT22;10106;51.332;12.336;2022-07-30T11:00:25;18.90;99.90
19888;DHT22;10106;51.332;12.336;2022-07-30T11:03:11;18.80;99.90
19888;DHT22;10106;51.332;12.336;2022-07-30T11:05:36;18.70;99.90
19888;DHT22;10106;51.332;12.336;2022-07-30T11:08:27;18.60;99.90
19888;DHT22;10106;51.332;12.336;2022-07-30T11:10:52;18.60;99.90
19888;DHT22;10106;51.332;12.336;2022-07-30T11:13:51;18.60;99.90
19888;DHT22;10106;51.332;12.336;2022-07-30T11:19:15;18.60;99.90
19888;DHT22;10106;51.332;12.336;2022-07-30T11:21:45;18.60;99.90
19888;DHT22;10106;51.332;12.336;2022-07-30T11:24:43;18.60;99.90
19888;DHT22;10106;51.332;12.336;2022-07-30T11:27:10;18.60;99.90
19888;DHT22;10106;51.332;12.336;2022-07-30T11:29:55;18.70;99.90
19888;DHT22;10106;51.332;12.336;2022-07-30T11:32:28;18.80;99.90
19888;DHT22;10106;51.332;12.336;2022-07-30T11:38:13;18.80;99.90
19888;DHT22;10106;51.332;12.336;2022-07-30T11:46:13;18.70;99.90
19888;DHT22;10106;51.332;12.336;2022-07-30T11:49:03;18.70;99.90
19888;DHT22;10106;51.332;12.336;2022-07-30T11:51:43;18.80;99.90
19888;DHT22;10106;51.332;12.336;2022-07-30T11:54:10;18.90;99.90
19888;DHT22;10106;51.332;12.336;2022-07-30T11:56:50;19.00;99.90
19888;DHT22;10106;51.332;12.336;2022-07-30T11:59:16;19.20;99.90
19888;DHT22;10106;51.332;12.336;2022-07-30T12:01:42;19.30;99.90
19888;DHT22;10106;51.332;12.336;2022-07-30T12:04:08;19.30;99.90
19888;DHT22;10106;51.332;12.336;2022-07-30T12:06:45;19.30;99.90
19888;DHT22;10106;51.332;12.336;2022-07-30T12:09:11;19.40;99.90
19888;DHT22;10106;51.332;12.336;2022-07-30T12:11:37;19.40;99.90
19888;DHT22;10106;51.332;12.336;2022-07-30T12:14:03;19.60;99.90
19888;DHT22;10106;51.332;12.336;2022-07-30T12:16:31;19.70;99.90
19888;DHT22;10106;51.332;12.336;2022-07-30T12:19:02;20.00;99.90
19888;DHT22;10106;51.332;12.336;2022-07-30T12:21:28;20.00;99.90
19888;DHT22;10106;51.332;12.336;2022-07-30T12:24:01;20.20;99.90
19888;DHT22;10106;51.332;12.336;2022-07-30T12:26:32;20.30;99.90
19888;DHT22;10106;51.332;12.336;2022-07-30T12:29:01;20.40;99.90
19888;DHT22;10106;51.332;12.336;2022-07-30T12:31:30;20.50;99.90
19888;DHT22;10106;51.332;12.336;2022-07-30T12:34:01;20.40;99.90
19888;DHT22;10106;51.332;12.336;2022-07-30T12:36:32;20.40;99.90
19888;DHT22;10106;51.332;12.336;2022-07-30T12:39:00;20.40;99.90
19888;DHT22;10106;51.332;12.336;2022-07-30T12:41:42;20.40;99.90
19888;DHT22;10106;51.332;12.336;2022-07-30T12:44:08;20.40;99.90
19888;DHT22;10106;51.332;12.336;2022-07-30T12:46:40;20.40;99.90
19888;DHT22;10106;51.332;12.336;2022-07-30T12:49:07;20.30;99.90
19888;DHT22;10106;51.332;12.336;2022-07-30T12:51:49;20.30;99.90
19888;DHT22;10106;51.332;12.336;2022-07-30T12:54:16;20.30;99.90
19888;DHT22;10106;51.332;12.336;2022-07-30T12:56:56;20.30;99.90
19888;DHT22;10106;51.332;12.336;2022-07-30T12:59:23;20.40;99.90
19888;DHT22;10106;51.332;12.336;2022-07-30T13:01:50;20.40;99.90
19888;DHT22;10106;51.332;12.336;2022-07-30T13:04:16;20.60;99.90
19888;DHT22;10106;51.332;12.336;2022-07-30T13:06:42;20.70;99.90
19888;DHT22;10106;51.332;12.336;2022-07-30T13:09:19;20.60;99.90
19888;DHT22;10106;51.332;12.336;2022-07-30T13:11:46;20.80;99.90
19888;DHT22;10106;51.332;12.336;2022-07-30T13:14:12;20.80;99.90
19888;DHT22;10106;51.332;12.336;2022-07-30T13:16:40;20.80;99.90
19888;DHT22;10106;51.332;12.336;2022-07-30T13:19:07;20.80;99.90
19888;DHT22;10106;51.332;12.336;2022-07-30T13:21:36;20.90;99.90
19888;DHT22;10106;51.332;12.336;2022-07-30T13:24:02;21.00;99.90
19888;DHT22;10106;51.332;12.336;2022-07-30T13:26:28;20.90;99.90
19888;DHT22;10106;51.332;12.336;2022-07-30T13:28:55;21.00;99.90
19888;DHT22;10106;51.332;12.336;2022-07-30T13:31:21;20.90;99.90
19888;DHT22;10106;51.332;12.336;2022-07-30T13:33:46;20.90;99.90
19888;DHT22;10106;51.332;12.336;2022-07-30T13:36:12;20.90;99.90
19888;DHT22;10106;51.332;12.336;2022-07-30T13:38:38;20.90;99.90
19888;DHT22;10106;51.332;12.336;2022-07-30T13:41:04;20.90;99.90
19888;DHT22;10106;51.332;12.336;2022-07-30T13:43:30;20.80;99.90
19888;DHT22;10106;51.332;12.336;2022-07-30T13:45:55;20.70;99.90
19888;DHT22;10106;51.332;12.336;2022-07-30T13:48:21;20.70;99.90
19888;DHT22;10106;51.332;12.336;2022-07-30T13:50:47;20.70;99.90
19888;DHT22;10106;51.332;12.336;2022-07-30T13:53:13;20.70;99.90
19888;DHT22;10106;51.332;12.336;2022-07-30T13:55:39;20.70;99.90
19888;DHT22;10106;51.332;12.336;2022-07-30T13:58:05;20.70;99.90
19888;DHT22;10106;51.332;12.336;2022-07-30T14:00:32;20.70;99.90
19888;DHT22;10106;51.332;12.336;2022-07-30T14:03:02;20.70;99.90
19888;DHT22;10106;51.332;12.336;2022-07-30T14:05:28;20.70;99.90
19888;DHT22;10106;51.332;12.336;2022-07-30T14:07:54;20.70;99.90
19888;DHT22;10106;51.332;12.336;2022-07-30T14:10:20;20.60;99.90
19888;DHT22;10106;51.332;12.336;2022-07-30T14:12:50;20.60;99.90
19888;DHT22;10106;51.332;12.336;2022-07-30T14:15:26;20.60;99.90
19888;DHT22;10106;51.332;12.336;2022-07-30T14:17:52;20.60;99.90
19888;DHT22;10106;51.332;12.336;2022-07-30T14:20:18;20.70;99.90
19888;DHT22;10106;51.332;12.336;2022-07-30T14:22:44;20.70;99.90
19888;DHT22;10106;51.332;12.336;2022-07-30T14:25:10;20.60;99.90
19888;DHT22;10106;51.332;12.336;2022-07-30T14:27:37;20.60;99.90
19888;DHT22;10106;51.332;12.336;2022-07-30T14:30:04;20.60;99.90
19888;DHT22;10106;51.332;12.336;2022-07-30T14:32:31;20.40;99.90
19888;DHT22;10106;51.332;12.336;2022-07-30T14:34:56;20.40;99.90
19888;DHT22;10106;51.332;12.336;2022-07-30T14:37:22;20.30;99.90
19888;DHT22;10106;51.332;12.336;2022-07-30T14:39:48;20.30;99.90
19888;DHT22;10106;51.332;12.336;2022-07-30T14:42:14;20.30;99.90
19888;DHT22;10106;51.332;12.336;2022-07-30T14:44:39;20.30;99.90
19888;DHT22;10106;51.332;12.336;2022-07-30T14:47:05;20.20;99.90
19888;DHT22;10106;51.332;12.336;2022-07-30T14:49:31;20.20;99.90
19888;DHT22;10106;51.332;12.336;2022-07-30T14:51:56;20.30;99.90
19888;DHT22;10106;51.332;12.336;2022-07-30T14:54:22;20.30;99.90
19888;DHT22;10106;51.332;12.336;2022-07-30T14:56:48;20.40;99.90
19888;DHT22;10106;51.332;12.336;2022-07-30T14:59:14;20.40;99.90
19888;DHT22;10106;51.332;12.336;2022-07-30T15:01:40;20.40;99.90
19888;DHT22;10106;51.332;12.336;2022-07-30T15:04:06;20.40;99.90
19888;DHT22;10106;51.332;12.336;2022-07-30T15:06:35;20.50;99.90
19888;DHT22;10106;51.332;12.336;2022-07-30T15:09:01;20.60;99.90
19888;DHT22;10106;51.332;12.336;2022-07-30T15:11:27;20.60;99.90
19888;DHT22;10106;51.332;12.336;2022-07-30T15:13:53;20.80;99.90
19888;DHT22;10106;51.332;12.336;2022-07-30T15:16:18;20.90;99.90
19888;DHT22;10106;51.332;12.336;2022-07-30T15:18:44;21.00;99.90
19888;DHT22;10106;51.332;12.336;2022-07-30T15:21:11;21.10;99.90
19888;DHT22;10106;51.332;12.336;2022-07-30T15:23:39;21.20;99.90
19888;DHT22;10106;51.332;12.336;2022-07-30T15:26:05;21.20;99.90
19888;DHT22;10106;51.332;12.336;2022-07-30T15:28:31;21.20;99.90
19888;DHT22;10106;51.332;12.336;2022-07-30T15:30:56;21.30;99.90
19888;DHT22;10106;51.332;12.336;2022-07-30T15:33:22;21.20;99.90
19888;DHT22;10106;51.332;12.336;2022-07-30T15:35:48;21.30;99.90
19888;DHT22;10106;51.332;12.336;2022-07-30T15:38:14;21.30;99.90
19888;DHT22;10106;51.332;12.336;2022-07-30T15:40:40;21.40;99.90
19888;DHT22;10106;51.332;12.336;2022-07-30T15:43:06;21.50;99.90
19888;DHT22;10106;51.332;12.336;2022-07-30T15:45:32;21.60;99.90
19888;DHT22;10106;51.332;12.336;2022-07-30T15:48:00;21.60;99.90
19888;DHT22;10106;51.332;12.336;2022-07-30T15:50:29;21.60;99.90